sensor_id;sensor_type;location;lat;lon;timestamp;temperature;humidity
34766;DHT22;20984;43.508;1.504;2022-10-16T00:02:00;16.70;99.90
34766;DHT22;20984;43.508;1.504;2022-10-16T00:04:26;16.90;99.90
34766;DHT22;20984;43.508;1.504;2022-10-16T00:06:52;16.90;99.90
34766;DHT22;20984;43.508;1.504;2022-10-16T00:09:19;16.90;99.90
34766;DHT22;20984;43.508;1.504;2022-10-16T00:11:44;16.90;99.90
34766;DHT22;20984;43.508;1.504;2022-10-16T00:14:13;17.00;99.90
34766;DHT22;20984;43.508;1.504;2022-10-16T00:16:40;16.90;99.90
34766;DHT22;20984;43.508;1.504;2022-10-16T00:19:06;16.90;99.90
34766;DHT22;20984;43.508;1.504;2022-10-16T00:21:33;16.90;99.90
34766;DHT22;20984;43.508;1.504;2022-10-16T00:24:09;16.90;99.90
34766;DHT22;20984;43.508;1.504;2022-10-16T00:26:36;16.90;99.90
34766;DHT22;20984;43.508;1.504;2022-10-16T00:29:03;16.90;99.90
34766;DHT22;20984;43.508;1.504;2022-10-16T00:31:29;16.90;99.90
34766;DHT22;20984;43.508;1.504;2022-10-16T00:33:55;16.90;99.90
34766;DHT22;20984;43.508;1.504;2022-10-16T00:36:22;16.90;99.90
34766;DHT22;20984;43.508;1.504;2022-10-16T00:38:56;16.90;99.90
34766;DHT22;20984;43.508;1.504;2022-10-16T00:41:25;16.90;99.90
34766;DHT22;20984;43.508;1.504;2022-10-16T00:43:56;16.90;99.90
34766;DHT22;20984;43.508;1.504;2022-10-16T00:46:37;16.80;99.90
34766;DHT22;20984;43.508;1.504;2022-10-16T00:51:37;16.80;99.90
34766;DHT22;20984;43.508;1.504;2022-10-16T00:54:04;16.70;99.90
34766;DHT22;20984;43.508;1.504;2022-10-16T00:56:32;16.70;99.90
34766;DHT22;20984;43.508;1.504;2022-10-16T00:58:59;16.70;99.90
34766;DHT22;20984;43.508;1.504;2022-10-16T01:01:27;16.70;99.90
34766;DHT22;20984;43.508;1.504;2022-10-16T01:03:53;16.80;99.90
34766;DHT22;20984;43.508;1.504;2022-10-16T01:06:36;16.90;99.90
34766;DHT22;20984;43.508;1.504;2022-10-16T01:09:17;16.90;99.90
34766;DHT22;20984;43.508;1.504;2022-10-16T01:20:01;17.00;99.90
34766;DHT22;20984;43.508;1.504;2022-10-16T01:22:37;17.10;99.90
34766;DHT22;20984;43.508;1.504;2022-10-16T01:25:09;17.10;99.90
34766;DHT22;20984;43.508;1.504;2022-10-16T01:27:40;17.20;99.90
34766;DHT22;20984;43.508;1.504;2022-10-16T01:32:40;17.30;99.90
34766;DHT22;20984;43.508;1.504;2022-10-16T01:38:00;17.30;99.90
34766;DHT22;20984;43.508;1.504;2022-10-16T01:40:27;17.30;99.90
34766;DHT22;20984;43.508;1.504;2022-10-16T01:43:02;17.20;99.90
34766;DHT22;20984;43.508;1.504;2022-10-16T01:45:30;17.20;99.90
34766;DHT22;20984;43.508;1.504;2022-10-16T01:47:59;17.30;99.90
34766;DHT22;20984;43.508;1.504;2022-10-16T01:50:26;17.30;99.90
34766;DHT22;20984;43.508;1.504;2022-10-16T01:52:54;17.40;99.90
34766;DHT22;20984;43.508;1.504;2022-10-16T01:55:30;17.40;99.90
34766;DHT22;20984;43.508;1.504;2022-10-16T01:57:59;17.40;99.90
34766;DHT22;20984;43.508;1.504;2022-10-16T02:00:27;17.40;99.90
34766;DHT22;20984;43.508;1.504;2022-10-16T02:02:55;17.50;99.90
34766;DHT22;20984;43.508;1.504;2022-10-16T02:05:30;17.50;99.90
34766;DHT22;20984;43.508;1.504;2022-10-16T02:07:57;17.50;99.90
34766;DHT22;20984;43.508;1.504;2022-10-16T02:10:24;17.50;99.90
34766;DHT22;20984;43.508;1.504;2022-10-16T02:13:01;17.50;99.90
34766;DHT22;20984;43.508;1.504;2022-10-16T02:15:27;17.50;99.90
34766;DHT22;20984;43.508;1.504;2022-10-16T02:17:53;17.40;99.90
34766;DHT22;20984;43.508;1.504;2022-10-16T02:20:28;17.40;99.90
34766;DHT22;20984;43.508;1.504;2022-10-16T02:22:56;17.40;99.90
34766;DHT22;20984;43.508;1.504;2022-10-16T02:25:37;17.40;99.90
34766;DHT22;20984;43.508;1.504;2022-10-16T02:28:19;17.40;99.90
34766;DHT22;20984;43.508;1.504;2022-10-16T02:31:04;17.40;99.90
34766;DHT22;20984;43.508;1.504;2022-10-16T02:33:33;17.40;99.90
34766;DHT22;20984;43.508;1.504;2022-10-16T02:35:59;17.40;99.90
34766;DHT22;20984;43.508;1.504;2022-10-16T02:38:25;17.40;99.90
34766;DHT22;20984;43.508;1.504;2022-10-16T02:40:52;17.40;99.90
34766;DHT22;20984;43.508;1.504;2022-10-16T02:43:18;17.40;99.90
34766;DHT22;20984;43.508;1.504;2022-10-16T02:45:44;17.40;99.90
34766;DHT22;20984;43.508;1.504;2022-10-16T02:48:10;17.40;99.90
34766;DHT22;20984;43.508;1.504;2022-10-16T02:50:36;17.40;99.90
34766;DHT22;20984;43.508;1.504;2022-10-16T02:53:02;17.40;99.90
34766;DHT22;20984;43.508;1.504;2022-10-16T02:55:28;17.50;99.90
34766;DHT22;20984;43.508;1.504;2022-10-16T02:57:54;17.50;99.90
34766;DHT22;20984;43.508;1.504;2022-10-16T03:00:20;17.50;99.90
34766;DHT22;20984;43.508;1.504;2022-10-16T03:02:46;17.60;99.90
34766;DHT22;20984;43.508;1.504;2022-10-16T03:05:13;17.70;99.90
34766;DHT22;20984;43.508;1.504;2022-10-16T03:07:39;17.70;99.90
34766;DHT22;20984;43.508;1.504;2022-10-16T03:10:06;17.60;99.90
34766;DHT22;20984;43.508;1.504;2022-10-16T03:12:32;17.70;99.90
34766;DHT22;20984;43.508;1.504;2022-10-16T03:14:58;17.60;99.90
34766;DHT22;20984;43.508;1.504;2022-10-16T03:17:24;17.70;99.90
34766;DHT22;20984;43.508;1.504;2022-10-16T03:19:50;17.70;99.90
34766;DHT22;20984;43.508;1.504;2022-10-16T03:22:16;17.70;99.90
34766;DHT22;20984;43.508;1.504;2022-10-16T03:24:42;17.80;99.90
34766;DHT22;20984;43.508;1.504;2022-10-16T03:27:08;17.80;99.90
34766;DHT22;20984;43.508;1.504;2022-10-16T03:29:34;17.80;99.90
34766;DHT22;20984;43.508;1.504;2022-10-16T03:32:01;17.80;99.90
34766;DHT22;20984;43.508;1.504;2022-10-16T03:34:27;17.70;99.90
34766;DHT22;20984;43.508;1.504;2022-10-16T03:36:53;17.70;99.90
34766;DHT22;20984;43.508;1.504;2022-10-16T03:39:19;17.80;99.90
34766;DHT22;20984;43.508;1.504;2022-10-16T03:41:45;17.80;99.90
34766;DHT22;20984;43.508;1.504;2022-10-16T03:44:12;17.90;99.90
34766;DHT22;20984;43.508;1.504;2022-10-16T03:46:38;17.80;99.90
34766;DHT22;20984;43.508;1.504;2022-10-16T03:49:04;17.90;99.90
34766;DHT22;20984;43.508;1.504;2022-10-16T03:51:30;17.90;99.90
34766;DHT22;20984;43.508;1.504;2022-10-16T03:53:55;17.80;99.90
34766;DHT22;20984;43.508;1.504;2022-10-16T03:56:21;17.90;99.90
34766;DHT22;20984;43.508;1.504;2022-10-16T03:58:47;17.90;99.90
34766;DHT22;20984;43.508;1.504;2022-10-16T04:01:13;17.90;99.90
34766;DHT22;20984;43.508;1.504;2022-10-16T04:03:39;17.90;99.90
34766;DHT22;20984;43.508;1.504;2022-10-16T04:06:05;17.90;99.90
34766;DHT22;20984;43.508;1.504;2022-10-16T04:08:31;17.90;99.90
34766;DHT22;20984;43.508;1.504;2022-10-16T04:10:59;17.90;99.90
34766;DHT22;20984;43.508;1.504;2022-10-16T04:13:25;18.00;99.90
34766;DHT22;20984;43.508;1.504;2022-10-16T04:15:51;18.00;99.90
34766;DHT22;20984;43.508;1.504;2022-10-16T04:18:17;18.00;99.90
34766;DHT22;20984;43.508;1.504;2022-10-16T04:20:42;18.00;99.90
34766;DHT22;20984;43.508;1.504;2022-10-16T04:23:08;18.00;99.90
34766;DHT22;20984;43.508;1.504;2022-10-16T04:25:34;18.00;99.90
34766;DHT22;20984;43.508;1.504;2022-10-16T04:28:00;18.00;99.90
34766;DHT22;20984;43.508;1.504;2022-10-16T04:30:26;18.00;99.90
34766;DHT22;20984;43.508;1.504;2022-10-16T04:32:52;18.00;99.90
34766;DHT22;20984;43.508;1.504;2022-10-16T04:35:19;18.00;99.90
34766;DHT22;20984;43.508;1.504;2022-10-16T04:37:46;18.00;99.90
34766;DHT22;20984;43.508;1.504;2022-10-16T04:40:13;18.00;99.90
34766;DHT22;20984;43.508;1.504;2022-10-16T04:42:39;18.00;99.90
34766;DHT22;20984;43.508;1.504;2022-10-16T04:45:06;18.00;99.90
34766;DHT22;20984;43.508;1.504;2022-10-16T04:47:32;18.00;99.90
34766;DHT22;20984;43.508;1.504;2022-10-16T04:49:57;18.10;99.90
34766;DHT22;20984;43.508;1.504;2022-10-16T04:52:24;18.10;99.90
34766;DHT22;20984;43.508;1.504;2022-10-16T04:54:51;18.10;99.90
34766;DHT22;20984;43.508;1.504;2022-10-16T04:57:17;18.10;99.90
34766;DHT22;20984;43.508;1.504;2022-10-16T04:59:43;18.10;99.90
34766;DHT22;20984;43.508;1.504;2022-10-16T05:02:09;18.10;99.90
34766;DHT22;20984;43.508;1.504;2022-10-16T05:04:34;18.10;99.90
34766;DHT22;20984;43.508;1.504;2022-10-16T05:07:00;18.10;99.90
34766;DHT22;20984;43.508;1.504;2022-10-16T05:09:26;18.10;99.90
34766;DHT22;20984;43.508;1.504;2022-10-16T05:11:52;18.10;99.90
34766;DHT22;20984;43.508;1.504;2022-10-16T05:14:18;18.10;99.90
34766;DHT22;20984;43.508;1.504;2022-10-16T05:16:44;18.10;99.90
34766;DHT22;20984;43.508;1.504;2022-10-16T05:19:10;18.10;99.90
34766;DHT22;20984;43.508;1.504;2022-10-16T05:21:35;18.10;99.90
34766;DHT22;20984;43.508;1.504;2022-10-16T05:24:01;18.10;99.90
34766;DHT22;20984;43.508;1.504;2022-10-16T05:26:27;18.10;99.90
34766;DHT22;20984;43.508;1.504;2022-10-16T05:28:53;18.10;99.90
34766;DHT22;20984;43.508;1.504;2022-10-16T05:31:19;18.10;99.90
34766;DHT22;20984;43.508;1.504;2022-10-16T05:33:45;18.20;99.90
34766;DHT22;20984;43.508;1.504;2022-10-16T05:36:11;18.10;99.90
34766;DHT22;20984;43.508;1.504;2022-10-16T05:38:37;18.10;99.90
34766;DHT22;20984;43.508;1.504;2022-10-16T05:41:04;18.20;99.90
34766;DHT22;20984;43.508;1.504;2022-10-16T05:43:31;18.20;99.90
34766;DHT22;20984;43.508;1.504;2022-10-16T05:45:59;18.20;99.90
34766;DHT22;20984;43.508;1.504;2022-10-16T05:48:25;18.20;99.90
34766;DHT22;20984;43.508;1.504;2022-10-16T05:51:03;18.30;99.90
34766;DHT22;20984;43.508;1.504;2022-10-16T05:53:32;18.30;99.90
34766;DHT22;20984;43.508;1.504;2022-10-16T05:55:58;18.30;99.90
34766;DHT22;20984;43.508;1.504;2022-10-16T05:58:25;18.30;99.90
34766;DHT22;20984;43.508;1.504;2022-10-16T06:00:58;18.30;99.90
34766;DHT22;20984;43.508;1.504;2022-10-16T06:03:24;18.30;99.90
34766;DHT22;20984;43.508;1.504;2022-10-16T06:05:51;18.30;99.90
34766;DHT22;20984;43.508;1.504;2022-10-16T06:08:17;18.30;99.90
34766;DHT22;20984;43.508;1.504;2022-10-16T06:10:44;18.30;99.90
34766;DHT22;20984;43.508;1.504;2022-10-16T06:13:10;18.30;99.90
34766;DHT22;20984;43.508;1.504;2022-10-16T06:15:37;18.30;99.90
34766;DHT22;20984;43.508;1.504;2022-10-16T06:18:05;18.30;99.90
34766;DHT22;20984;43.508;1.504;2022-10-16T06:20:31;18.30;99.90
34766;DHT22;20984;43.508;1.504;2022-10-16T06:23:00;18.30;99.90
34766;DHT22;20984;43.508;1.504;2022-10-16T06:25:26;18.40;99.90
34766;DHT22;20984;43.508;1.504;2022-10-16T06:27:52;18.40;99.90
34766;DHT22;20984;43.508;1.504;2022-10-16T06:30:17;18.40;99.90
34766;DHT22;20984;43.508;1.504;2022-10-16T06:32:43;18.50;99.90
34766;DHT22;20984;43.508;1.504;2022-10-16T06:35:09;18.50;99.90
34766;DHT22;20984;43.508;1.504;2022-10-16T06:37:35;18.50;99.90
34766;DHT22;20984;43.508;1.504;2022-10-16T06:40:00;18.50;99.90
34766;DHT22;20984;43.508;1.504;2022-10-16T06:42:29;18.50;99.90
34766;DHT22;20984;43.508;1.504;2022-10-16T06:44:55;18.60;99.90
34766;DHT22;20984;43.508;1.504;2022-10-16T06:47:21;18.70;99.90
34766;DHT22;20984;43.508;1.504;2022-10-16T06:49:47;18.70;99.90
34766;DHT22;20984;43.508;1.504;2022-10-16T06:52:13;18.70;99.90
34766;DHT22;20984;43.508;1.504;2022-10-16T06:54:38;18.70;99.90
34766;DHT22;20984;43.508;1.504;2022-10-16T06:57:04;18.70;99.90
34766;DHT22;20984;43.508;1.504;2022-10-16T06:59:30;18.80;99.90
34766;DHT22;20984;43.508;1.504;2022-10-16T07:01:56;18.80;99.90
34766;DHT22;20984;43.508;1.504;2022-10-16T07:04:22;18.80;99.90
34766;DHT22;20984;43.508;1.504;2022-10-16T07:06:47;18.80;99.90
34766;DHT22;20984;43.508;1.504;2022-10-16T07:09:13;18.80;99.90
34766;DHT22;20984;43.508;1.504;2022-10-16T07:11:40;18.80;99.90
34766;DHT22;20984;43.508;1.504;2022-10-16T07:14:16;18.80;99.90
34766;DHT22;20984;43.508;1.504;2022-10-16T07:16:42;18.90;99.90
34766;DHT22;20984;43.508;1.504;2022-10-16T07:19:08;18.90;99.90
34766;DHT22;20984;43.508;1.504;2022-10-16T07:21:34;19.00;99.90
34766;DHT22;20984;43.508;1.504;2022-10-16T07:24:01;19.00;99.90
34766;DHT22;20984;43.508;1.504;2022-10-16T07:26:29;19.10;99.90
34766;DHT22;20984;43.508;1.504;2022-10-16T07:28:56;19.10;99.90
34766;DHT22;20984;43.508;1.504;2022-10-16T07:31:24;19.10;99.90
34766;DHT22;20984;43.508;1.504;2022-10-16T07:33:50;19.20;99.90
34766;DHT22;20984;43.508;1.504;2022-10-16T07:36:18;19.20;99.90
34766;DHT22;20984;43.508;1.504;2022-10-16T07:38:44;19.30;99.90
34766;DHT22;20984;43.508;1.504;2022-10-16T07:41:14;19.30;99.90
34766;DHT22;20984;43.508;1.504;2022-10-16T07:43:40;19.30;99.90
34766;DHT22;20984;43.508;1.504;2022-10-16T07:46:06;19.20;99.90
34766;DHT22;20984;43.508;1.504;2022-10-16T07:48:33;19.20;99.90
34766;DHT22;20984;43.508;1.504;2022-10-16T07:51:04;19.20;99.90
34766;DHT22;20984;43.508;1.504;2022-10-16T07:53:31;19.30;99.90
34766;DHT22;20984;43.508;1.504;2022-10-16T07:56:01;19.30;99.90
34766;DHT22;20984;43.508;1.504;2022-10-16T07:58:28;19.40;99.90
34766;DHT22;20984;43.508;1.504;2022-10-16T08:00:55;19.50;99.90
34766;DHT22;20984;43.508;1.504;2022-10-16T08:03:20;19.60;99.90
34766;DHT22;20984;43.508;1.504;2022-10-16T08:05:46;19.70;99.90
34766;DHT22;20984;43.508;1.504;2022-10-16T08:08:13;19.90;99.90
34766;DHT22;20984;43.508;1.504;2022-10-16T08:10:40;20.00;99.90
34766;DHT22;20984;43.508;1.504;2022-10-16T08:13:05;20.00;99.90
34766;DHT22;20984;43.508;1.504;2022-10-16T08:15:31;20.10;99.90
34766;DHT22;20984;43.508;1.504;2022-10-16T08:17:59;20.10;99.90
34766;DHT22;20984;43.508;1.504;2022-10-16T08:20:26;20.20;99.90
34766;DHT22;20984;43.508;1.504;2022-10-16T08:22:52;20.20;99.90
34766;DHT22;20984;43.508;1.504;2022-10-16T08:25:19;20.10;99.90
34766;DHT22;20984;43.508;1.504;2022-10-16T08:27:45;20.20;99.90
34766;DHT22;20984;43.508;1.504;2022-10-16T08:30:11;20.20;99.90
34766;DHT22;20984;43.508;1.504;2022-10-16T08:32:37;20.20;99.90
34766;DHT22;20984;43.508;1.504;2022-10-16T08:35:03;20.20;99.90
34766;DHT22;20984;43.508;1.504;2022-10-16T08:37:33;20.20;99.90
34766;DHT22;20984;43.508;1.504;2022-10-16T08:39:58;20.30;99.90
34766;DHT22;20984;43.508;1.504;2022-10-16T08:43:06;20.40;99.90
34766;DHT22;20984;43.508;1.504;2022-10-16T08:48:43;20.50;99.90
34766;DHT22;20984;43.508;1.504;2022-10-16T08:51:17;20.60;99.90
34766;DHT22;20984;43.508;1.504;2022-10-16T08:53:58;20.70;99.90
34766;DHT22;20984;43.508;1.504;2022-10-16T08:56:25;20.80;99.90
34766;DHT22;20984;43.508;1.504;2022-10-16T08:58:52;20.90;99.90
34766;DHT22;20984;43.508;1.504;2022-10-16T09:01:21;20.90;99.90
34766;DHT22;20984;43.508;1.504;2022-10-16T09:07:02;21.10;99.90
34766;DHT22;20984;43.508;1.504;2022-10-16T09:13:17;21.10;99.90
34766;DHT22;20984;43.508;1.504;2022-10-16T09:18:02;21.20;99.90
34766;DHT22;20984;43.508;1.504;2022-10-16T09:21:09;21.30;99.90
34766;DHT22;20984;43.508;1.504;2022-10-16T09:23:38;21.30;99.90
34766;DHT22;20984;43.508;1.504;2022-10-16T09:26:05;21.30;99.90
34766;DHT22;20984;43.508;1.504;2022-10-16T09:28:34;21.40;99.90
34766;DHT22;20984;43.508;1.504;2022-10-16T09:31:00;21.50;99.90
34766;DHT22;20984;43.508;1.504;2022-10-16T09:33:30;21.50;99.90
34766;DHT22;20984;43.508;1.504;2022-10-16T09:35:59;21.60;99.90
34766;DHT22;20984;43.508;1.504;2022-10-16T09:38:30;21.70;99.90
34766;DHT22;20984;43.508;1.504;2022-10-16T09:40:58;21.60;99.90
34766;DHT22;20984;43.508;1.504;2022-10-16T09:46:02;21.70;99.90
34766;DHT22;20984;43.508;1.504;2022-10-16T09:48:36;21.80;99.90
34766;DHT22;20984;43.508;1.504;2022-10-16T09:51:05;21.90;99.90
34766;DHT22;20984;43.508;1.504;2022-10-16T09:53:43;22.00;99.90
34766;DHT22;20984;43.508;1.504;2022-10-16T09:56:11;22.20;99.90
34766;DHT22;20984;43.508;1.504;2022-10-16T09:58:42;22.30;99.90
34766;DHT22;20984;43.508;1.504;2022-10-16T10:01:13;22.20;99.90
34766;DHT22;20984;43.508;1.504;2022-10-16T10:03:41;22.20;99.90
34766;DHT22;20984;43.508;1.504;2022-10-16T10:06:28;22.20;99.90
34766;DHT22;20984;43.508;1.504;2022-10-16T10:12:03;22.20;99.90
34766;DHT22;20984;43.508;1.504;2022-10-16T10:14:36;22.30;99.90
34766;DHT22;20984;43.508;1.504;2022-10-16T10:19:56;22.40;99.90
34766;DHT22;20984;43.508;1.504;2022-10-16T10:22:29;22.40;99.90
34766;DHT22;20984;43.508;1.504;2022-10-16T10:28:06;22.50;99.90
34766;DHT22;20984;43.508;1.504;2022-10-16T10:44:05;22.80;99.90
34766;DHT22;20984;43.508;1.504;2022-10-16T10:57:54;22.90;99.90
34766;DHT22;20984;43.508;1.504;2022-10-16T11:00:49;22.90;99.90
34766;DHT22;20984;43.508;1.504;2022-10-16T11:09:18;22.90;99.90
34766;DHT22;20984;43.508;1.504;2022-10-16T11:11:47;23.00;99.90
34766;DHT22;20984;43.508;1.504;2022-10-16T11:17:35;23.10;99.90
34766;DHT22;20984;43.508;1.504;2022-10-16T11:20:16;23.20;99.90
34766;DHT22;20984;43.508;1.504;2022-10-16T11:22:52;23.20;99.90
34766;DHT22;20984;43.508;1.504;2022-10-16T11:25:30;23.30;99.90
34766;DHT22;20984;43.508;1.504;2022-10-16T11:28:08;23.30;99.90
34766;DHT22;20984;43.508;1.504;2022-10-16T11:31:08;23.40;99.90
34766;DHT22;20984;43.508;1.504;2022-10-16T11:33:47;23.50;99.90
34766;DHT22;20984;43.508;1.504;2022-10-16T11:36:26;23.40;99.90
34766;DHT22;20984;43.508;1.504;2022-10-16T11:46:56;23.50;99.90
34766;DHT22;20984;43.508;1.504;2022-10-16T11:49:25;23.60;99.90
34766;DHT22;20984;43.508;1.504;2022-10-16T11:52:19;23.60;99.90
34766;DHT22;20984;43.508;1.504;2022-10-16T11:55:01;23.50;99.90
34766;DHT22;20984;43.508;1.504;2022-10-16T11:57:38;23.50;99.90
34766;DHT22;20984;43.508;1.504;2022-10-16T12:00:08;23.50;99.90
34766;DHT22;20984;43.508;1.504;2022-10-16T12:05:22;23.50;99.90
34766;DHT22;20984;43.508;1.504;2022-10-16T12:08:11;23.60;99.90
34766;DHT22;20984;43.508;1.504;2022-10-16T12:10:38;23.70;99.90
34766;DHT22;20984;43.508;1.504;2022-10-16T12:13:34;23.80;99.90
34766;DHT22;20984;43.508;1.504;2022-10-16T12:16:24;23.80;99.90
34766;DHT22;20984;43.508;1.504;2022-10-16T12:19:08;23.80;99.90
34766;DHT22;20984;43.508;1.504;2022-10-16T12:21:35;23.80;99.90
34766;DHT22;20984;43.508;1.504;2022-10-16T12:24:02;23.80;99.90
34766;DHT22;20984;43.508;1.504;2022-10-16T12:26:34;23.80;99.90
34766;DHT22;20984;43.508;1.504;2022-10-16T12:31:52;23.70;99.90
34766;DHT22;20984;43.508;1.504;2022-10-16T12:34:32;23.70;99.90
34766;DHT22;20984;43.508;1.504;2022-10-16T12:37:34;23.70;99.90
34766;DHT22;20984;43.508;1.504;2022-10-16T12:40:26;23.80;99.90
34766;DHT22;20984;43.508;1.504;2022-10-16T12:42:52;23.90;99.90
34766;DHT22;20984;43.508;1.504;2022-10-16T12:45:34;23.90;99.90
34766;DHT22;20984;43.508;1.504;2022-10-16T12:48:02;23.90;99.90
34766;DHT22;20984;43.508;1.504;2022-10-16T12:50:31;24.00;99.90
34766;DHT22;20984;43.508;1.504;2022-10-16T12:52:58;24.00;99.90
34766;DHT22;20984;43.508;1.504;2022-10-16T12:55:25;23.90;99.90
34766;DHT22;20984;43.508;1.504;2022-10-16T13:01:10;23.70;99.90
34766;DHT22;20984;43.508;1.504;2022-10-16T13:04:02;23.70;99.90
34766;DHT22;20984;43.508;1.504;2022-10-16T13:06:54;23.60;99.90
34766;DHT22;20984;43.508;1.504;2022-10-16T13:12:46;23.80;99.90
34766;DHT22;20984;43.508;1.504;2022-10-16T13:18:14;24.00;99.90
34766;DHT22;20984;43.508;1.504;2022-10-16T13:28:38;24.30;99.90
34766;DHT22;20984;43.508;1.504;2022-10-16T13:31:05;24.20;99.90
34766;DHT22;20984;43.508;1.504;2022-10-16T13:33:42;24.20;99.90
34766;DHT22;20984;43.508;1.504;2022-10-16T13:36:22;24.20;99.90
34766;DHT22;20984;43.508;1.504;2022-10-16T13:38:48;24.30;99.90
34766;DHT22;20984;43.508;1.504;2022-10-16T13:41:25;24.30;99.90
34766;DHT22;20984;43.508;1.504;2022-10-16T13:43:52;24.30;99.90
34766;DHT22;20984;43.508;1.504;2022-10-16T13:46:24;24.20;99.90
34766;DHT22;20984;43.508;1.504;2022-10-16T13:51:27;24.00;99.90
34766;DHT22;20984;43.508;1.504;2022-10-16T13:53:55;24.00;99.90
34766;DHT22;20984;43.508;1.504;2022-10-16T13:56:26;23.90;99.90
34766;DHT22;20984;43.508;1.504;2022-10-16T14:01:53;24.00;99.90
34766;DHT22;20984;43.508;1.504;2022-10-16T14:04:19;24.00;99.90
34766;DHT22;20984;43.508;1.504;2022-10-16T14:06:49;24.00;99.90
34766;DHT22;20984;43.508;1.504;2022-10-16T14:09:28;24.00;99.90
34766;DHT22;20984;43.508;1.504;2022-10-16T14:12:01;24.00;99.90
34766;DHT22;20984;43.508;1.504;2022-10-16T14:14:34;24.00;99.90
34766;DHT22;20984;43.508;1.504;2022-10-16T14:17:02;24.00;99.90
34766;DHT22;20984;43.508;1.504;2022-10-16T14:19:29;24.00;99.90
34766;DHT22;20984;43.508;1.504;2022-10-16T14:22:14;24.00;99.90
34766;DHT22;20984;43.508;1.504;2022-10-16T14:24:42;24.00;99.90
34766;DHT22;20984;43.508;1.504;2022-10-16T14:27:30;23.80;99.90
34766;DHT22;20984;43.508;1.504;2022-10-16T14:30:26;23.80;99.90
34766;DHT22;20984;43.508;1.504;2022-10-16T14:33:04;23.80;99.90
34766;DHT22;20984;43.508;1.504;2022-10-16T14:35:36;23.80;99.90
34766;DHT22;20984;43.508;1.504;2022-10-16T14:38:04;23.70;99.90
34766;DHT22;20984;43.508;1.504;2022-10-16T14:40:36;23.60;99.90
34766;DHT22;20984;43.508;1.504;2022-10-16T14:43:04;23.50;99.90
34766;DHT22;20984;43.508;1.504;2022-10-16T14:45:32;23.50;99.90
34766;DHT22;20984;43.508;1.504;2022-10-16T14:48:02;23.40;99.90
34766;DHT22;20984;43.508;1.504;2022-10-16T14:50:29;23.40;99.90
34766;DHT22;20984;43.508;1.504;2022-10-16T14:52:55;23.40;99.90
34766;DHT22;20984;43.508;1.504;2022-10-16T14:55:21;23.30;99.90
34766;DHT22;20984;43.508;1.504;2022-10-16T14:57:47;23.30;99.90
34766;DHT22;20984;43.508;1.504;2022-10-16T15:00:20;23.20;99.90
34766;DHT22;20984;43.508;1.504;2022-10-16T15:02:48;23.20;99.90
34766;DHT22;20984;43.508;1.504;2022-10-16T15:05:16;23.20;99.90
34766;DHT22;20984;43.508;1.504;2022-10-16T15:07:43;23.10;99.90
34766;DHT22;20984;43.508;1.504;2022-10-16T15:10:09;23.20;99.90
34766;DHT22;20984;43.508;1.504;2022-10-16T15:12:35;23.30;99.90
34766;DHT22;20984;43.508;1.504;2022-10-16T15:15:01;23.30;99.90
34766;DHT22;20984;43.508;1.504;2022-10-16T15:17:27;23.30;99.90
34766;DHT22;20984;43.508;1.504;2022-10-16T15:19:53;23.30;99.90
34766;DHT22;20984;43.508;1.504;2022-10-16T15:22:19;23.40;99.90
34766;DHT22;20984;43.508;1.504;2022-10-16T15:24:45;23.40;99.90
34766;DHT22;20984;43.508;1.504;2022-10-16T15:27:10;23.40;99.90
34766;DHT22;20984;43.508;1.504;2022-10-16T15:29:36;23.50;99.90
34766;DHT22;20984;43.508;1.504;2022-10-16T15:32:02;23.40;99.90
34766;DHT22;20984;43.508;1.504;2022-10-16T15:34:28;23.30;99.90
34766;DHT22;20984;43.508;1.504;2022-10-16T15:36:54;23.30;99.90
34766;DHT22;20984;43.508;1.504;2022-10-16T15:39:22;23.30;99.90
34766;DHT22;20984;43.508;1.504;2022-10-16T15:41:48;23.30;99.90
34766;DHT22;20984;43.508;1.504;2022-10-16T15:44:18;23.30;99.90
34766;DHT22;20984;43.508;1.504;2022-10-16T15:46:45;23.30;99.90
34766;DHT22;20984;43.508;1.504;2022-10-16T15:49:11;23.20;99.90
34766;DHT22;20984;43.508;1.504;2022-10-16T15:51:41;23.20;99.90
34766;DHT22;20984;43.508;1.504;2022-10-16T15:54:07;23.10;99.90
34766;DHT22;20984;43.508;1.504;2022-10-16T15:56:33;23.00;99.90
34766;DHT22;20984;43.508;1.504;2022-10-16T15:59:02;23.00;99.90
34766;DHT22;20984;43.508;1.504;2022-10-16T16:01:31;22.90;99.90
34766;DHT22;20984;43.508;1.504;2022-10-16T16:03:57;22.80;99.90
34766;DHT22;20984;43.508;1.504;2022-10-16T16:06:23;22.70;99.90
34766;DHT22;20984;43.508;1.504;2022-10-16T16:08:50;22.70;99.90
34766;DHT22;20984;43.508;1.504;2022-10-16T16:11:17;22.60;99.90
34766;DHT22;20984;43.508;1.504;2022-10-16T16:13:43;22.60;99.90
34766;DHT22;20984;43.508;1.504;2022-10-16T16:16:11;22.40;99.90
34766;DHT22;20984;43.508;1.504;2022-10-16T16:18:38;22.40;99.90
34766;DHT22;20984;43.508;1.504;2022-10-16T16:21:04;22.30;99.90
34766;DHT22;20984;43.508;1.504;2022-10-16T16:23:31;22.30;99.90
34766;DHT22;20984;43.508;1.504;2022-10-16T16:28:31;22.10;99.90
34766;DHT22;20984;43.508;1.504;2022-10-16T16:30:57;22.10;99.90
34766;DHT22;20984;43.508;1.504;2022-10-16T16:33:23;22.00;99.90
34766;DHT22;20984;43.508;1.504;2022-10-16T16:35:49;22.00;99.90
34766;DHT22;20984;43.508;1.504;2022-10-16T16:38:15;21.90;99.90
34766;DHT22;20984;43.508;1.504;2022-10-16T16:40:41;21.90;99.90
34766;DHT22;20984;43.508;1.504;2022-10-16T16:43:07;21.80;99.90
34766;DHT22;20984;43.508;1.504;2022-10-16T16:45:35;21.70;99.90
34766;DHT22;20984;43.508;1.504;2022-10-16T16:48:01;21.60;99.90
34766;DHT22;20984;43.508;1.504;2022-10-16T16:50:27;21.50;99.90
34766;DHT22;20984;43.508;1.504;2022-10-16T16:52:53;21.40;99.90
34766;DHT22;20984;43.508;1.504;2022-10-16T16:55:19;21.40;99.90
34766;DHT22;20984;43.508;1.504;2022-10-16T16:57:47;21.30;99.90
34766;DHT22;20984;43.508;1.504;2022-10-16T17:00:13;21.30;99.90
34766;DHT22;20984;43.508;1.504;2022-10-16T17:02:39;21.20;99.90
34766;DHT22;20984;43.508;1.504;2022-10-16T17:05:08;21.20;99.90
34766;DHT22;20984;43.508;1.504;2022-10-16T17:07:34;21.20;99.90
34766;DHT22;20984;43.508;1.504;2022-10-16T17:10:01;21.10;99.90
34766;DHT22;20984;43.508;1.504;2022-10-16T17:12:29;21.10;99.90
34766;DHT22;20984;43.508;1.504;2022-10-16T17:14:55;21.00;99.90
34766;DHT22;20984;43.508;1.504;2022-10-16T17:17:21;20.90;99.90
34766;DHT22;20984;43.508;1.504;2022-10-16T17:19:49;20.90;99.90
34766;DHT22;20984;43.508;1.504;2022-10-16T17:22:19;20.90;99.90
34766;DHT22;20984;43.508;1.504;2022-10-16T17:24:48;20.90;99.90
34766;DHT22;20984;43.508;1.504;2022-10-16T17:27:17;20.80;99.90
34766;DHT22;20984;43.508;1.504;2022-10-16T17:29:43;20.80;99.90
34766;DHT22;20984;43.508;1.504;2022-10-16T17:32:09;20.80;99.90
34766;DHT22;20984;43.508;1.504;2022-10-16T17:34:36;20.80;99.90
34766;DHT22;20984;43.508;1.504;2022-10-16T17:37:02;20.80;99.90